createdAt,value
2019-03-23T00:00:40.745Z,49.50
2019-03-23T00:03:13.364Z,53.45
2019-03-23T00:05:46.034Z,49.13
2019-03-23T00:08:18.674Z,50.33
2019-03-23T00:10:51.631Z,56.40
2019-03-23T00:13:24.256Z,52.62
2019-03-23T00:15:56.911Z,56.48
2019-03-23T00:18:29.549Z,64.42
2019-03-23T00:21:02.264Z,65.70
2019-03-23T00:23:35.073Z,63.35
2019-03-23T00:26:08.922Z,65.28
2019-03-23T00:28:41.949Z,73.65
2019-03-23T00:31:14.677Z,58.28
2019-03-23T00:33:47.361Z,60.48
2019-03-23T00:36:20.080Z,60.63
2019-03-23T00:38:52.697Z,66.90
2019-03-23T00:41:26.067Z,63.50
2019-03-23T00:43:58.961Z,62.95
2019-03-23T00:46:31.683Z,57.80
2019-03-23T00:49:04.295Z,68.60
2019-03-23T00:51:36.938Z,57.40
2019-03-23T00:54:09.568Z,57.45
2019-03-23T00:56:42.550Z,54.93
2019-03-23T00:59:15.186Z,58.87
2019-03-23T01:01:47.839Z,54.85
2019-03-23T01:04:21.045Z,62.13
2019-03-23T01:06:55.243Z,56.50
2019-03-23T01:09:27.878Z,58.78
2019-03-23T01:12:00.997Z,56.98
2019-03-23T01:14:33.942Z,57.35
2019-03-23T01:17:06.590Z,56.85
2019-03-23T01:19:39.253Z,69.62
2019-03-23T01:22:12.181Z,63.10
2019-03-23T01:24:44.847Z,67.15
2019-03-23T01:27:17.750Z,56.00
2019-03-23T01:29:50.698Z,55.38
2019-03-23T01:32:24.004Z,57.00
2019-03-23T01:34:57.203Z,63.35
2019-03-23T01:37:29.837Z,64.37
2019-03-23T01:40:02.823Z,64.50
2019-03-23T01:42:35.442Z,69.85
2019-03-23T01:45:10.258Z,66.65
2019-03-23T01:47:43.289Z,62.23
2019-03-23T01:50:16.449Z,61.55
2019-03-23T01:52:49.202Z,61.80
2019-03-23T01:55:21.867Z,62.43
2019-03-23T01:57:54.765Z,73.67
2019-03-23T02:00:27.860Z,65.30
2019-03-23T02:03:01.106Z,62.78
2019-03-23T02:05:33.785Z,62.88
2019-03-23T02:08:07.014Z,74.07
2019-03-23T02:10:41.860Z,57.35
2019-03-23T02:13:13.994Z,70.42
2019-03-23T02:15:46.905Z,58.05
2019-03-23T02:18:19.587Z,59.10
2019-03-23T02:20:52.396Z,61.58
2019-03-23T02:23:25.009Z,67.50
2019-03-23T02:25:57.655Z,60.43
2019-03-23T02:28:30.283Z,61.08
2019-03-23T02:31:03.730Z,59.27
2019-03-23T02:33:36.341Z,65.67
2019-03-23T02:36:09.285Z,67.82
2019-03-23T02:38:43.029Z,59.67
2019-03-23T02:41:15.977Z,55.95
2019-03-23T02:43:48.605Z,60.10
2019-03-23T02:46:21.257Z,60.83
2019-03-23T02:48:53.919Z,66.22
2019-03-23T02:51:26.913Z,63.55
2019-03-23T02:53:59.533Z,60.50
2019-03-23T02:56:32.318Z,65.52
2019-03-23T02:59:04.945Z,66.77
2019-03-23T03:01:37.718Z,58.52
2019-03-23T03:04:10.594Z,62.43
2019-03-23T03:06:43.273Z,66.53
2019-03-23T03:09:16.332Z,63.10
2019-03-23T03:11:49.304Z,60.15
2019-03-23T03:14:22.002Z,65.47
2019-03-23T03:16:54.650Z,58.45
2019-03-23T03:19:27.551Z,59.13
2019-03-23T03:22:00.923Z,60.63
2019-03-23T03:24:33.552Z,58.95
2019-03-23T03:27:06.527Z,56.83
2019-03-23T03:29:39.157Z,63.30
2019-03-23T03:32:12.440Z,59.45
2019-03-23T03:34:45.043Z,56.58
2019-03-23T03:37:17.681Z,65.15
2019-03-23T03:39:50.332Z,57.30
2019-03-23T03:42:22.938Z,59.25
2019-03-23T03:44:55.571Z,63.28
2019-03-23T03:47:28.173Z,61.85
2019-03-23T03:50:00.843Z,64.65
2019-03-23T03:52:33.451Z,62.00
2019-03-23T03:55:06.354Z,65.60
2019-03-23T03:57:39.042Z,63.87
2019-03-23T04:00:12.217Z,62.13
2019-03-23T04:02:44.843Z,61.05
2019-03-23T04:05:17.494Z,62.23
2019-03-23T04:07:50.107Z,73.92
2019-03-23T04:10:22.791Z,69.37
2019-03-23T04:12:55.691Z,73.87
2019-03-23T04:15:28.664Z,66.47
2019-03-23T04:18:01.245Z,74.40
2019-03-23T04:20:33.934Z,70.47
2019-03-23T04:23:07.230Z,68.10
2019-03-23T04:25:39.863Z,59.70
2019-03-23T04:28:13.054Z,65.47
2019-03-23T04:30:45.656Z,58.98
2019-03-23T04:33:18.304Z,62.23
2019-03-23T04:35:51.175Z,58.23
2019-03-23T04:38:23.837Z,59.80
2019-03-23T04:40:56.573Z,58.55
2019-03-23T04:43:29.518Z,60.10
2019-03-23T04:46:02.212Z,65.12
2019-03-23T04:48:34.878Z,69.67
2019-03-23T04:51:07.533Z,73.10
2019-03-23T04:53:40.160Z,80.15
2019-03-23T04:56:12.790Z,63.50
2019-03-23T04:58:45.457Z,71.07
2019-03-23T05:01:18.313Z,77.67
2019-03-23T05:03:51.082Z,83.78
2019-03-23T05:06:23.683Z,65.28
2019-03-23T05:08:56.581Z,76.57
2019-03-23T05:11:29.162Z,74.42
2019-03-23T05:14:01.872Z,79.55
2019-03-23T05:16:34.473Z,84.55
2019-03-23T05:19:08.196Z,88.25
2019-03-23T05:21:40.796Z,87.30
2019-03-23T05:24:13.443Z,83.72
2019-03-23T05:26:47.426Z,76.72
2019-03-23T05:29:20.290Z,73.37
2019-03-23T05:31:53.029Z,72.85
2019-03-23T05:34:29.165Z,77.25
2019-03-23T05:37:04.754Z,76.20
2019-03-23T05:39:37.391Z,75.75
2019-03-23T05:42:10.017Z,85.62
2019-03-23T05:44:42.630Z,70.57
2019-03-23T05:47:15.367Z,82.80
2019-03-23T05:49:47.988Z,68.50
2019-03-23T05:52:20.642Z,86.05
2019-03-23T05:54:53.225Z,74.92
2019-03-23T05:57:26.143Z,85.65
2019-03-23T05:59:58.756Z,76.65
2019-03-23T06:02:31.386Z,77.42
2019-03-23T06:05:04.225Z,71.42
2019-03-23T06:07:36.810Z,74.80
2019-03-23T06:10:09.616Z,74.45
2019-03-23T06:12:42.192Z,80.57
2019-03-23T06:15:14.994Z,84.90
2019-03-23T06:17:47.595Z,84.75
2019-03-23T06:20:20.384Z,79.50
2019-03-23T06:22:52.969Z,92.45
2019-03-23T06:25:26.609Z,82.75
2019-03-23T06:27:59.813Z,82.45
2019-03-23T06:30:32.473Z,81.22
2019-03-23T06:33:05.544Z,76.00
2019-03-23T06:35:38.164Z,87.62
2019-03-23T06:38:11.709Z,72.32
2019-03-23T06:40:44.334Z,73.87
2019-03-23T06:43:17.022Z,78.28
2019-03-23T06:45:49.930Z,77.17
2019-03-23T06:48:22.896Z,70.65
2019-03-23T06:50:55.666Z,80.85
2019-03-23T06:53:28.334Z,79.95
2019-03-23T06:56:00.975Z,67.90
2019-03-23T06:58:34.002Z,67.50
2019-03-23T07:01:06.633Z,80.45
2019-03-23T07:03:39.282Z,75.37
2019-03-23T07:06:11.901Z,63.65
2019-03-23T07:08:44.957Z,69.15
2019-03-23T07:11:17.589Z,81.02
2019-03-23T07:13:50.308Z,85.53
2019-03-23T07:16:24.937Z,73.07
2019-03-23T07:18:57.828Z,72.65
2019-03-23T07:21:30.781Z,69.47
2019-03-23T07:24:03.483Z,79.05
2019-03-23T07:26:36.166Z,77.25
2019-03-23T07:29:10.063Z,72.22
2019-03-23T07:31:42.676Z,75.72
2019-03-23T07:34:15.378Z,79.73
2019-03-23T07:36:47.989Z,89.37
2019-03-23T07:39:28.022Z,76.00
2019-03-23T07:41:55.298Z,84.30
2019-03-23T07:44:27.995Z,72.27
2019-03-23T07:47:00.634Z,77.87
2019-03-23T07:49:33.315Z,72.77
2019-03-23T07:52:05.984Z,82.37
2019-03-23T07:54:39.007Z,76.50
2019-03-23T07:57:12.064Z,73.40
2019-03-23T07:59:45.030Z,80.53
2019-03-23T08:02:17.661Z,65.97
2019-03-23T08:04:50.358Z,64.73
2019-03-23T08:07:22.979Z,76.17
2019-03-23T08:09:55.983Z,67.07
2019-03-23T08:12:29.285Z,69.23
2019-03-23T08:17:40.110Z,70.33
2019-03-23T08:20:13.264Z,66.97
2019-03-23T08:22:45.917Z,58.97
2019-03-23T08:25:18.830Z,72.73
2019-03-23T08:27:51.589Z,69.83
2019-03-23T08:30:24.212Z,65.97
2019-03-23T08:32:57.490Z,79.27
2019-03-23T08:35:30.409Z,84.47
2019-03-23T08:38:03.358Z,73.33
2019-03-23T08:40:36.049Z,66.43
2019-03-23T08:43:08.773Z,62.80
2019-03-23T08:45:41.667Z,60.83
2019-03-23T08:48:14.815Z,67.20
2019-03-23T08:50:47.867Z,56.00
2019-03-23T08:53:20.514Z,63.33
2019-03-23T08:55:53.108Z,60.47
2019-03-23T08:58:29.892Z,61.03
2019-03-23T09:01:02.838Z,59.43
2019-03-23T09:03:36.002Z,56.60
2019-03-23T09:06:08.721Z,59.73
2019-03-23T09:08:41.374Z,56.70
2019-03-23T09:11:20.457Z,56.50
2019-03-23T09:13:48.508Z,56.37
2019-03-23T09:16:21.417Z,54.53
2019-03-23T09:18:54.071Z,63.50
2019-03-23T09:21:26.679Z,53.47
2019-03-23T09:23:59.448Z,52.83
2019-03-23T09:26:32.070Z,55.40
2019-03-23T09:29:04.725Z,51.73
2019-03-23T09:31:37.326Z,49.00
2019-03-23T09:34:10.442Z,53.97
2019-03-23T09:36:43.057Z,58.53
2019-03-23T09:39:15.720Z,55.93
2019-03-23T09:41:48.343Z,52.60
2019-03-23T09:44:21.382Z,52.20
2019-03-23T09:46:54.294Z,55.17
2019-03-23T09:49:27.212Z,53.20
2019-03-23T09:52:01.099Z,57.10
2019-03-23T09:54:35.280Z,53.87
2019-03-23T09:57:09.127Z,55.80
2019-03-23T09:59:44.264Z,55.20
2019-03-23T10:02:16.878Z,57.23
2019-03-23T10:04:50.596Z,57.80
2019-03-23T10:07:23.255Z,54.37
2019-03-23T10:09:56.122Z,54.50
2019-03-23T10:12:28.795Z,57.27
2019-03-23T10:15:01.702Z,56.50
2019-03-23T10:17:34.460Z,63.33
2019-03-23T10:20:08.278Z,56.63
2019-03-23T10:22:41.178Z,57.70
2019-03-23T10:25:14.815Z,54.70
2019-03-23T10:27:47.442Z,59.60
2019-03-23T10:30:20.038Z,57.80
2019-03-23T10:35:30.455Z,54.37
2019-03-23T10:38:03.377Z,56.40
2019-03-23T10:40:35.971Z,55.00
2019-03-23T10:43:08.905Z,55.90
2019-03-23T10:45:44.314Z,53.50
2019-03-23T10:48:16.384Z,55.17
2019-03-23T10:50:49.120Z,54.83
2019-03-23T10:53:23.281Z,52.40
2019-03-23T10:55:56.139Z,56.50
2019-03-23T10:58:28.780Z,58.60
2019-03-23T11:01:01.367Z,56.57
2019-03-23T11:03:33.995Z,55.70
2019-03-23T11:06:06.918Z,54.93
2019-03-23T11:08:39.544Z,53.57
2019-03-23T11:11:12.552Z,55.73
2019-03-23T11:13:45.596Z,56.50
2019-03-23T11:16:18.183Z,59.07
2019-03-23T11:18:50.818Z,59.13
2019-03-23T11:21:23.433Z,53.80
2019-03-23T11:23:56.056Z,59.43
2019-03-23T11:26:28.648Z,58.10
2019-03-23T11:29:01.298Z,56.30
2019-03-23T11:31:34.235Z,55.63
2019-03-23T11:34:17.226Z,54.33
2019-03-23T11:36:41.625Z,52.77
2019-03-23T11:39:14.271Z,55.60
2019-03-23T11:41:47.181Z,55.80
2019-03-23T11:44:22.155Z,59.17
2019-03-23T11:46:54.754Z,57.43
2019-03-23T11:49:27.693Z,56.83
2019-03-23T11:52:00.282Z,55.67
2019-03-23T11:54:32.897Z,55.10
2019-03-23T11:57:05.820Z,55.10
2019-03-23T11:59:39.107Z,57.63
2019-03-23T12:02:11.804Z,54.60
2019-03-23T12:04:45.698Z,54.77
2019-03-23T12:07:18.288Z,56.13
2019-03-23T12:09:50.925Z,56.57
2019-03-23T12:12:23.557Z,53.00
2019-03-23T12:14:56.260Z,55.43
2019-03-23T12:17:28.843Z,55.50
2019-03-23T12:20:01.727Z,57.90
2019-03-23T12:22:34.679Z,58.73
2019-03-23T12:25:08.002Z,59.57
2019-03-23T12:27:40.616Z,53.10
2019-03-23T12:30:15.824Z,60.73
2019-03-23T12:32:48.563Z,55.87
2019-03-23T12:35:21.815Z,54.47
2019-03-23T12:37:57.489Z,56.73
2019-03-23T12:40:30.241Z,54.80
2019-03-23T12:43:02.844Z,58.30
2019-03-23T12:45:35.715Z,48.33
2019-03-23T12:48:09.404Z,55.73
2019-03-23T12:50:42.203Z,52.77
2019-03-23T12:53:15.194Z,56.80
2019-03-23T12:55:47.833Z,57.00
2019-03-23T12:58:22.809Z,52.40
2019-03-23T13:00:55.182Z,54.20
2019-03-23T13:03:28.095Z,53.90
2019-03-23T13:06:00.738Z,52.97
2019-03-23T13:08:33.835Z,53.13
2019-03-23T13:11:06.614Z,50.70
2019-03-23T13:13:39.521Z,55.23
2019-03-23T13:16:12.440Z,58.40
2019-03-23T13:18:45.521Z,52.20
2019-03-23T13:21:18.181Z,53.10
2019-03-23T13:23:51.242Z,52.23
2019-03-23T13:26:24.019Z,53.93
2019-03-23T13:28:56.601Z,52.47
2019-03-23T13:31:29.289Z,51.47
2019-03-23T13:34:01.885Z,51.87
2019-03-23T13:36:34.523Z,53.70
2019-03-23T13:39:08.155Z,52.20
2019-03-23T13:41:47.374Z,54.90
2019-03-23T13:44:19.999Z,52.63
2019-03-23T13:46:52.628Z,50.70
2019-03-23T13:49:25.553Z,56.23
2019-03-23T13:51:58.217Z,53.37
2019-03-23T13:54:30.830Z,54.10
2019-03-23T13:57:03.491Z,55.67
2019-03-23T13:59:36.078Z,53.40
2019-03-23T14:02:09.370Z,53.20
2019-03-23T14:04:42.099Z,52.67
2019-03-23T14:07:14.712Z,55.17
2019-03-23T14:09:47.300Z,54.53
2019-03-23T14:12:20.537Z,53.77
2019-03-23T14:14:53.630Z,54.70
2019-03-23T14:17:26.267Z,66.67
2019-03-23T14:19:58.851Z,59.97
2019-03-23T14:22:31.853Z,52.60
2019-03-23T14:25:05.053Z,54.53
2019-03-23T14:27:39.792Z,52.93
2019-03-23T14:30:12.387Z,49.93
2019-03-23T14:32:45.082Z,48.53
2019-03-23T14:35:18.017Z,45.40
2019-03-23T14:37:50.982Z,45.63
2019-03-23T14:40:23.907Z,45.93
2019-03-23T14:42:56.596Z,43.47
2019-03-23T14:45:29.495Z,41.10
2019-03-23T14:48:02.451Z,47.03
2019-03-23T14:50:35.057Z,46.47
2019-03-23T14:53:07.854Z,44.60
2019-03-23T14:55:40.448Z,46.10
2019-03-23T14:58:13.374Z,48.57
2019-03-23T15:00:46.262Z,47.97
2019-03-23T15:03:19.242Z,46.67
2019-03-23T15:05:53.179Z,51.83
2019-03-23T15:08:26.249Z,53.93
2019-03-23T15:10:58.830Z,51.40
2019-03-23T15:13:31.787Z,54.53
2019-03-23T15:16:04.363Z,53.53
2019-03-23T15:18:36.989Z,50.87
2019-03-23T15:21:09.573Z,59.10
2019-03-23T15:23:42.942Z,55.43
2019-03-23T15:26:15.573Z,53.10
2019-03-23T15:28:48.436Z,51.63
2019-03-23T15:31:21.020Z,55.20
2019-03-23T15:33:53.953Z,52.13
2019-03-23T15:36:28.015Z,49.60
2019-03-23T15:39:01.327Z,54.00
2019-03-23T15:41:34.231Z,52.10
2019-03-23T15:44:07.140Z,53.70
2019-03-23T15:46:43.758Z,56.63
2019-03-23T15:49:16.411Z,52.67
2019-03-23T15:51:49.471Z,60.93
2019-03-23T15:54:22.377Z,53.70
2019-03-23T15:56:55.011Z,53.37
2019-03-23T15:59:28.474Z,53.77
2019-03-23T16:02:02.141Z,54.13
2019-03-23T16:04:34.770Z,58.10
2019-03-23T16:07:08.015Z,55.23
2019-03-23T16:09:41.551Z,52.47
2019-03-23T16:12:14.165Z,54.47
2019-03-23T16:14:46.835Z,57.40
2019-03-23T16:17:19.437Z,58.00
2019-03-23T16:19:52.122Z,56.13
2019-03-23T16:22:24.786Z,62.73
2019-03-23T16:24:57.810Z,56.33
2019-03-23T16:27:30.442Z,53.40
2019-03-23T16:30:03.054Z,54.80
2019-03-23T16:32:35.839Z,54.10
2019-03-23T16:35:09.160Z,53.40
2019-03-23T16:37:41.797Z,52.13
2019-03-23T16:40:14.544Z,55.53
2019-03-23T16:42:47.585Z,51.80
2019-03-23T16:45:20.187Z,55.17
2019-03-23T16:47:52.824Z,46.87
2019-03-23T16:50:25.426Z,93.10
2019-03-23T16:52:58.964Z,46.83
2019-03-23T16:55:31.571Z,47.43
2019-03-23T16:58:04.525Z,46.30
2019-03-23T17:00:40.385Z,47.03
2019-03-23T17:03:13.411Z,49.10
2019-03-23T17:05:46.406Z,48.33
2019-03-23T17:08:19.054Z,45.83
2019-03-23T17:10:51.820Z,53.20
2019-03-23T17:13:24.762Z,45.93
2019-03-23T17:15:57.649Z,46.13
2019-03-23T17:18:30.317Z,41.03
2019-03-23T17:21:02.944Z,42.00
2019-03-23T17:23:35.594Z,43.97
2019-03-23T17:26:08.199Z,43.37
2019-03-23T17:28:40.843Z,44.27
2019-03-23T17:31:13.789Z,46.90
2019-03-23T17:33:49.861Z,46.57
2019-03-23T17:36:22.464Z,40.57
2019-03-23T17:38:55.129Z,39.60
2019-03-23T17:41:27.870Z,41.83
2019-03-23T17:46:39.128Z,48.83
2019-03-23T17:49:11.740Z,44.30
2019-03-23T17:51:44.699Z,55.50
2019-03-23T17:54:17.318Z,42.53
2019-03-23T17:56:50.102Z,49.10
2019-03-23T17:59:23.088Z,45.13
2019-03-23T18:01:56.074Z,42.27
2019-03-23T18:04:29.372Z,42.27
2019-03-23T18:07:03.033Z,43.70
2019-03-23T18:09:35.629Z,43.60
2019-03-23T18:12:08.458Z,41.60
2019-03-23T18:14:41.179Z,47.43
2019-03-23T18:17:14.155Z,40.60
2019-03-23T18:19:46.776Z,44.90
2019-03-23T18:22:19.418Z,41.73
2019-03-23T18:24:52.297Z,42.77
2019-03-23T18:27:25.200Z,51.43
2019-03-23T18:29:57.810Z,45.23
2019-03-23T18:32:30.734Z,50.13
2019-03-23T18:35:03.405Z,46.37
2019-03-23T18:37:36.376Z,48.90
2019-03-23T18:40:09.108Z,48.50
2019-03-23T18:42:41.751Z,44.87
2019-03-23T18:45:14.366Z,42.03
2019-03-23T18:47:47.028Z,46.80
2019-03-23T18:50:20.023Z,47.60
2019-03-23T18:52:52.700Z,45.33
2019-03-23T18:55:26.001Z,47.00
2019-03-23T18:57:59.328Z,46.97
2019-03-23T19:00:37.707Z,50.83
2019-03-23T19:03:10.451Z,45.07
2019-03-23T19:05:43.387Z,45.77
2019-03-23T19:08:16.020Z,50.70
2019-03-23T19:10:55.872Z,46.73
2019-03-23T19:13:37.566Z,43.73
2019-03-23T19:16:07.882Z,47.90
2019-03-23T19:18:40.699Z,43.70
2019-03-23T19:21:13.622Z,46.67
2019-03-23T19:23:46.261Z,47.57
2019-03-23T19:26:19.212Z,45.73
2019-03-23T19:28:51.853Z,43.67
2019-03-23T19:31:24.588Z,43.70
2019-03-23T19:33:57.246Z,46.00
2019-03-23T19:36:29.897Z,51.50
2019-03-23T19:39:02.699Z,56.70
2019-03-23T19:41:35.382Z,47.47
2019-03-23T19:44:08.008Z,49.03
2019-03-23T19:47:11.660Z,47.17
2019-03-23T19:50:03.573Z,45.97
2019-03-23T19:52:36.186Z,45.57
2019-03-23T19:55:09.554Z,45.93
2019-03-23T19:57:42.500Z,46.33
2019-03-23T20:00:15.143Z,47.43
2019-03-23T20:02:47.805Z,52.90
2019-03-23T20:05:20.684Z,51.00
2019-03-23T20:08:09.728Z,47.87
2019-03-23T20:11:19.589Z,49.53
2019-03-23T20:14:03.043Z,46.70
2019-03-23T20:17:09.800Z,49.50
2019-03-23T20:20:19.963Z,50.70
2019-03-23T20:22:43.661Z,48.63
2019-03-23T20:25:31.847Z,50.93
2019-03-23T20:28:29.506Z,47.63
2019-03-23T20:31:00.629Z,49.23
2019-03-23T20:34:05.896Z,50.10
2019-03-23T20:37:23.299Z,45.50
2019-03-23T20:39:56.161Z,46.37
2019-03-23T20:42:28.832Z,52.73
2019-03-23T20:45:01.598Z,47.93
2019-03-23T20:47:34.776Z,48.42
2019-03-23T20:50:08.553Z,51.45
2019-03-23T20:52:41.511Z,55.80
2019-03-23T20:55:29.313Z,55.28
2019-03-23T20:58:02.072Z,53.17
2019-03-23T21:00:36.579Z,53.90
2019-03-23T21:03:09.258Z,51.90
2019-03-23T21:05:41.900Z,55.52
2019-03-23T21:08:14.560Z,53.95
2019-03-23T21:10:47.440Z,53.92
2019-03-23T21:13:20.425Z,48.77
2019-03-23T21:15:53.299Z,52.90
2019-03-23T21:18:26.372Z,52.05
2019-03-23T21:20:59.110Z,50.38
2019-03-23T21:23:31.773Z,55.23
2019-03-23T21:26:04.367Z,54.65
2019-03-23T21:28:37.019Z,57.88
2019-03-23T21:31:09.658Z,54.93
2019-03-23T21:33:42.490Z,52.87
2019-03-23T21:36:15.952Z,57.93
2019-03-23T21:38:48.600Z,56.43
2019-03-23T21:41:21.300Z,47.38
2019-03-23T21:43:54.280Z,48.50
2019-03-23T21:46:27.169Z,52.13
2019-03-23T21:48:59.855Z,54.50
2019-03-23T21:51:32.591Z,57.58
2019-03-23T21:54:08.083Z,51.63
2019-03-23T21:56:40.714Z,52.85
2019-03-23T21:59:13.669Z,51.40
2019-03-23T22:01:46.465Z,55.80
2019-03-23T22:04:19.178Z,56.23
2019-03-23T22:06:51.797Z,56.25
2019-03-23T22:09:24.462Z,50.35
2019-03-23T22:11:57.443Z,58.38
2019-03-23T22:14:41.143Z,54.67
2019-03-23T22:17:05.988Z,64.22
2019-03-23T22:22:17.351Z,57.35
2019-03-23T22:24:50.041Z,53.68
2019-03-23T22:27:22.670Z,57.45
2019-03-23T22:29:55.353Z,68.92
2019-03-23T22:32:28.398Z,63.15
2019-03-23T22:35:01.378Z,64.12
2019-03-23T22:37:34.374Z,61.53
2019-03-23T22:40:08.193Z,64.55
2019-03-23T22:42:40.819Z,65.95
2019-03-23T22:45:13.572Z,59.30
2019-03-23T22:47:46.463Z,56.77
2019-03-23T22:50:19.477Z,56.00
2019-03-23T22:52:52.111Z,56.50
2019-03-23T22:55:24.870Z,57.38
2019-03-23T22:57:57.953Z,59.63
2019-03-23T23:00:48.187Z,58.30
2019-03-23T23:03:21.205Z,57.88
2019-03-23T23:05:53.929Z,56.95
2019-03-23T23:08:26.547Z,58.05
2019-03-23T23:10:59.547Z,66.45
2019-03-23T23:13:32.231Z,66.80
2019-03-23T23:16:05.524Z,64.10
2019-03-23T23:18:38.162Z,72.30
2019-03-23T23:21:12.029Z,65.35
2019-03-23T23:23:44.653Z,68.50
2019-03-23T23:26:18.035Z,65.28
2019-03-23T23:28:50.674Z,64.67
2019-03-23T23:31:23.466Z,61.25
2019-03-23T23:33:56.103Z,75.45
2019-03-23T23:36:29.216Z,64.53
2019-03-23T23:39:01.849Z,63.38
2019-03-23T23:41:34.794Z,59.03
2019-03-23T23:44:07.405Z,59.30
2019-03-23T23:46:40.057Z,67.32
2019-03-23T23:49:12.773Z,64.22
2019-03-23T23:51:50.031Z,67.80
2019-03-23T23:54:20.133Z,66.62
2019-03-23T23:56:53.806Z,80.10
2019-03-23T23:59:27.791Z,69.80
